CTH9 weather

Public forecast

Using degrees Celsius for public forecast. Weather courtesy of forecast.io.

Closest aviation weather report (METAR) to St-Augustin Heliport

Closest report is Lourdes de Blanc Sablon Airport, 56.2 nm (104.1 km) ENE. Retrieved 2020/08/09 14:25 UTC (0 seconds ago):

CYBX 091425Z 24007KT 7SM SCT004 BKN050 17/16 A2982 RMK SF4CU3 SLP099 DENSITY ALT 500FT

Closest aviation forecast (TAF) to St-Augustin Heliport

Closest forecast is Lourdes de Blanc Sablon Airport, 56.2 nm (104.1 km) ENE. Retrieved 2020/08/09 14:00 UTC (25 minutes ago):

TAF CYBX 091339Z 0914/1002 24010KT 2SM BR OVC003 BECMG 0914/0916 6SM BR SCT003 FM091600 22012KT P6SM SCT010 BKN120 TEMPO 0916/0918 BKN010 OVC120 FM092200 22008KT P6SM BKN060 TEMPO 0922/1002 5SM -SHRA BR BKN040 BECMG 1000/1002 16005KT RMK NXT FCST BY 092000Z